< Typhoon 200608 2006 Season Typhoon 200610 >
Typhoon 200609 (BOPHA)
General InformationTrack Information on Google MapsDetailed Wind InformationAccess Analytics MapList of All Images || NewsDisaster Info.WeblogTrackbackTyphoon FrontResourceGoogle EarthGE AnimationAtom FeedGeoJSON
Detalied Best Track (Time Zone = UTC)
Year Month Day Hour Lat. Long. Pressure (hPa) Wind (kt) Class Image Chart
2006 8 5 06 20.5 132.8 1006 0 2 Image Chart
2006 8 5 12 20.7 132.4 1004 0 2 Image Chart
2006 8 5 18 21.0 132.1 1002 0 2 Image Chart
2006 8 6 00 21.5 131.7 1002 0 2 Image Chart
2006 8 6 06 22.0 131.2 1002 0 2 Image Chart
2006 8 6 12 22.4 130.4 998 35 3 Image Chart
2006 8 6 18 22.5 129.7 994 45 3 Image Chart
2006 8 7 00 22.7 129.0 990 50 4 Image Chart
2006 8 7 06 22.9 128.3 990 50 4 Image Chart
2006 8 7 12 23.0 127.6 990 50 4 Image Chart
2006 8 7 15 23.1 126.8 990 50 4 Image Chart
2006 8 7 18 23.2 126.2 990 50 4 Image Chart
2006 8 7 21 23.3 125.6 985 55 4 Image Chart
2006 8 8 00 23.3 125.1 980 55 4 Image Chart
2006 8 8 03 23.3 124.5 980 55 4 Image Chart
2006 8 8 06 23.3 123.8 985 50 4 Image Chart
2006 8 8 09 23.4 123.2 990 45 3 Image Chart
2006 8 8 12 23.3 122.6 990 45 3 Image Chart
2006 8 8 18 22.8 121.5 992 40 3 Image Chart
2006 8 9 00 22.6 119.9 992 35 3 Image Chart
2006 8 9 06 22.3 118.6 994 0 2 Image Chart
2006 8 9 12 21.9 117.6 994 0 2 Image Chart
2006 8 9 18 21.7 117.2 994 0 2 Image Chart
2006 8 10 00 21.6 116.8 996 0 2 Image Chart
2006 8 10 06 21.6 116.4 998 0 2 Image Chart
2006 8 10 12 21.6 115.6 998 0 2 Image Chart
2006 8 10 18 21.8 114.7 998 0 2 Image Chart
2006 8 11 00 22.1 113.9 1000 0 2 Image Chart
Japan Meteorological Agency Best Track Data | Correction Date : 2006-10-30
< Typhoon 200608 2006 Season Typhoon 200610 >

Help